createdAt,value
2022-10-03T00:01:44.284Z,6.87
2022-10-03T00:04:36.429Z,8.17
2022-10-03T00:07:23.495Z,7.93
2022-10-03T00:10:07.022Z,8.43
2022-10-03T00:12:48.342Z,8.13
2022-10-03T00:15:24.049Z,7.77
2022-10-03T00:18:03.024Z,7.43
2022-10-03T00:20:47.027Z,7.27
2022-10-03T00:23:23.123Z,6.80
2022-10-03T00:26:23.578Z,6.67
2022-10-03T00:29:14.112Z,6.50
2022-10-03T00:31:55.226Z,6.77
2022-10-03T00:34:39.368Z,6.90
2022-10-03T00:37:24.434Z,6.13
2022-10-03T00:40:22.603Z,6.20
2022-10-03T00:43:34.174Z,5.97
2022-10-03T00:46:45.081Z,5.87
2022-10-03T00:49:39.162Z,6.40
2022-10-03T00:52:49.178Z,6.33
2022-10-03T00:55:28.739Z,5.73
2022-10-03T00:58:12.126Z,6.47
2022-10-03T01:00:43.343Z,6.03
2022-10-03T01:03:36.128Z,6.20
2022-10-03T01:06:19.483Z,5.67
2022-10-03T01:09:21.024Z,6.60
2022-10-03T01:12:07.216Z,6.43
2022-10-03T01:15:01.569Z,6.50
2022-10-03T01:17:40.136Z,6.27
2022-10-03T01:20:27.142Z,6.53
2022-10-03T01:23:36.481Z,6.93
2022-10-03T01:26:31.379Z,7.57
2022-10-03T01:29:23.739Z,7.50
2022-10-03T01:32:01.211Z,7.37
2022-10-03T01:34:35.522Z,7.17
2022-10-03T01:37:11.666Z,6.90
2022-10-03T01:39:47.930Z,7.13
2022-10-03T01:42:31.548Z,7.47
2022-10-03T01:45:14.060Z,7.70
2022-10-03T01:47:51.757Z,7.53
2022-10-03T01:50:29.431Z,7.40
2022-10-03T01:53:07.269Z,6.90
2022-10-03T01:55:52.489Z,6.93
2022-10-03T01:58:29.198Z,6.77
2022-10-03T02:01:12.531Z,6.93
2022-10-03T02:03:51.171Z,6.60
2022-10-03T02:06:29.992Z,6.67
2022-10-03T02:09:04.521Z,6.93
2022-10-03T02:11:38.038Z,6.40
2022-10-03T02:14:24.409Z,6.50
2022-10-03T02:17:00.174Z,6.27
2022-10-03T02:19:35.201Z,6.70
2022-10-03T02:22:04.248Z,6.90
2022-10-03T02:24:46.421Z,6.60
2022-10-03T02:27:38.177Z,7.00
2022-10-03T02:30:22.087Z,6.70
2022-10-03T02:33:23.988Z,6.47
2022-10-03T02:36:33.773Z,6.70
2022-10-03T02:39:28.193Z,6.40
2022-10-03T02:42:37.122Z,6.73
2022-10-03T02:45:38.206Z,6.23
2022-10-03T02:48:45.197Z,6.97
2022-10-03T02:51:43.188Z,6.73
2022-10-03T02:54:51.353Z,7.70
2022-10-03T02:58:03.142Z,6.53
2022-10-03T03:00:55.236Z,6.80
2022-10-03T03:03:48.119Z,6.53
2022-10-03T03:06:47.283Z,6.40
2022-10-03T03:09:47.616Z,6.90
2022-10-03T03:12:40.444Z,6.77
2022-10-03T03:15:44.970Z,6.67
2022-10-03T03:18:25.926Z,6.83
2022-10-03T03:21:11.072Z,6.77
2022-10-03T03:24:03.422Z,6.57
2022-10-03T03:26:53.284Z,6.80
2022-10-03T03:29:32.069Z,6.80
2022-10-03T03:32:11.058Z,7.50
2022-10-03T03:34:52.155Z,7.40
2022-10-03T03:37:28.182Z,7.37
2022-10-03T03:40:13.324Z,7.23
2022-10-03T03:42:57.712Z,8.13
2022-10-03T03:45:41.395Z,7.60
2022-10-03T03:48:24.217Z,8.03
2022-10-03T03:51:05.205Z,9.00
2022-10-03T03:54:08.957Z,8.80
2022-10-03T03:57:16.610Z,8.17
2022-10-03T04:00:00.412Z,9.37
2022-10-03T04:03:01.363Z,8.87
2022-10-03T04:05:46.186Z,9.57
2022-10-03T04:08:27.145Z,9.30
2022-10-03T04:11:12.334Z,10.17
2022-10-03T04:14:11.234Z,8.93
2022-10-03T04:17:11.531Z,9.40
2022-10-03T04:19:55.312Z,9.93
2022-10-03T04:22:39.775Z,9.23
2022-10-03T04:25:28.533Z,9.10
2022-10-03T04:28:18.003Z,9.33
2022-10-03T04:30:58.054Z,10.00
2022-10-03T04:33:41.829Z,9.90
2022-10-03T04:36:40.665Z,10.20
2022-10-03T04:39:16.147Z,9.30
2022-10-03T04:41:53.751Z,9.97
2022-10-03T04:44:34.961Z,9.50
2022-10-03T04:47:09.586Z,10.13
2022-10-03T04:49:44.035Z,10.20
2022-10-03T04:52:19.926Z,8.73
2022-10-03T04:55:02.369Z,9.27
2022-10-03T04:57:38.237Z,8.30
2022-10-03T05:00:23.639Z,8.27
2022-10-03T05:03:05.223Z,9.03
2022-10-03T05:05:48.739Z,8.57
2022-10-03T05:08:38.984Z,8.03
2022-10-03T05:11:23.154Z,7.57
2022-10-03T05:14:01.009Z,6.97
2022-10-03T05:16:38.937Z,7.37
2022-10-03T05:19:33.422Z,6.97
2022-10-03T05:22:09.686Z,7.27
2022-10-03T05:24:45.122Z,7.20
2022-10-03T05:27:25.287Z,7.13
2022-10-03T05:30:04.182Z,6.53
2022-10-03T05:32:40.047Z,6.50
2022-10-03T05:35:31.280Z,6.33
2022-10-03T05:38:30.392Z,6.77
2022-10-03T05:41:05.405Z,5.10
2022-10-03T05:43:50.057Z,5.37
2022-10-03T05:46:29.253Z,5.97
2022-10-03T05:49:18.770Z,5.53
2022-10-03T05:52:18.678Z,5.73
2022-10-03T05:55:04.263Z,4.80
2022-10-03T05:58:07.875Z,5.30
2022-10-03T06:00:53.174Z,5.10
2022-10-03T06:03:47.465Z,4.63
2022-10-03T06:06:24.141Z,4.23
2022-10-03T06:09:25.215Z,4.10
2022-10-03T06:12:10.200Z,4.17
2022-10-03T06:15:07.575Z,4.13
2022-10-03T06:17:58.336Z,4.23
2022-10-03T06:21:02.564Z,3.93
2022-10-03T06:24:05.222Z,4.20
2022-10-03T06:27:12.847Z,3.77
2022-10-03T06:30:00.240Z,3.73
2022-10-03T06:32:59.852Z,3.93
2022-10-03T06:36:01.334Z,4.00
2022-10-03T06:38:56.659Z,4.33
2022-10-03T06:42:04.150Z,4.13
2022-10-03T06:44:59.900Z,4.10
2022-10-03T06:47:47.829Z,3.50
2022-10-03T06:50:48.198Z,4.10
2022-10-03T06:53:36.608Z,3.87
2022-10-03T06:56:38.413Z,3.67
2022-10-03T06:59:39.185Z,3.80
2022-10-03T07:02:42.793Z,3.40
2022-10-03T07:05:41.385Z,3.60
2022-10-03T07:08:48.060Z,2.83
2022-10-03T07:11:39.219Z,2.90
2022-10-03T07:14:43.344Z,2.80
2022-10-03T07:17:47.384Z,2.70
2022-10-03T07:20:46.346Z,2.50
2022-10-03T07:23:50.333Z,2.43
2022-10-03T07:26:57.396Z,2.67
2022-10-03T07:29:35.975Z,2.73
2022-10-03T07:32:31.311Z,2.30
2022-10-03T07:36:02.215Z,2.37
2022-10-03T07:38:59.375Z,2.47
2022-10-03T07:42:01.064Z,2.30
2022-10-03T07:45:14.285Z,2.40
2022-10-03T07:48:20.356Z,2.30
2022-10-03T07:51:25.196Z,2.10
2022-10-03T07:54:39.304Z,2.00
2022-10-03T07:57:36.435Z,2.60
2022-10-03T08:00:24.449Z,2.50
2022-10-03T08:03:38.363Z,2.40
2022-10-03T08:06:23.647Z,2.30
2022-10-03T08:09:17.341Z,2.30
2022-10-03T08:12:31.562Z,2.30
2022-10-03T08:15:10.082Z,2.00
2022-10-03T08:18:07.393Z,1.90
2022-10-03T08:20:52.620Z,2.37
2022-10-03T08:24:06.617Z,2.23
2022-10-03T08:27:06.416Z,2.47
2022-10-03T08:29:57.240Z,2.10
2022-10-03T08:33:15.366Z,2.30
2022-10-03T08:36:16.658Z,2.20
2022-10-03T08:38:59.219Z,2.03
2022-10-03T08:42:12.330Z,2.07
2022-10-03T08:45:17.589Z,2.30
2022-10-03T08:48:28.337Z,2.47
2022-10-03T08:51:34.186Z,2.40
2022-10-03T08:54:13.585Z,2.40
2022-10-03T08:57:10.105Z,2.30
2022-10-03T09:00:17.111Z,2.20
2022-10-03T09:03:37.821Z,2.73
2022-10-03T09:06:58.952Z,2.43
2022-10-03T09:10:07.620Z,2.60
2022-10-03T09:13:09.535Z,2.50
2022-10-03T09:16:26.358Z,2.27
2022-10-03T09:19:11.499Z,3.17
2022-10-03T09:22:10.665Z,3.50
2022-10-03T09:25:06.828Z,2.77
2022-10-03T09:28:12.479Z,2.80
2022-10-03T09:30:54.333Z,3.10
2022-10-03T09:33:51.526Z,3.10
2022-10-03T09:36:53.105Z,3.30
2022-10-03T09:39:57.190Z,2.80
2022-10-03T09:43:01.615Z,3.10
2022-10-03T09:46:22.619Z,2.73
2022-10-03T09:49:30.739Z,2.90
2022-10-03T09:52:25.295Z,3.20
2022-10-03T09:55:34.246Z,2.60
2022-10-03T09:58:36.047Z,3.30
2022-10-03T10:01:21.029Z,3.60
2022-10-03T10:04:43.346Z,3.07
2022-10-03T10:07:50.134Z,3.23
2022-10-03T10:10:47.403Z,3.10
2022-10-03T10:14:07.098Z,2.73
2022-10-03T10:17:09.398Z,3.03
2022-10-03T10:19:53.282Z,2.60
2022-10-03T10:22:47.899Z,2.40
2022-10-03T10:25:34.898Z,2.60
2022-10-03T10:28:22.934Z,3.00
2022-10-03T10:31:26.469Z,3.03
2022-10-03T10:34:53.405Z,2.97
2022-10-03T10:38:07.906Z,2.70
2022-10-03T10:41:20.468Z,2.80
2022-10-03T10:44:38.118Z,2.53
2022-10-03T10:47:54.893Z,2.30
2022-10-03T10:50:56.017Z,2.00
2022-10-03T10:54:11.305Z,1.90
2022-10-03T10:57:07.875Z,1.60
2022-10-03T11:00:12.708Z,1.50
2022-10-03T11:03:25.476Z,1.47
2022-10-03T11:06:42.902Z,1.37
2022-10-03T11:09:46.332Z,1.77
2022-10-03T11:13:06.944Z,2.50
2022-10-03T11:16:15.212Z,2.23
2022-10-03T11:19:29.176Z,1.80
2022-10-03T11:22:29.442Z,2.07
2022-10-03T11:25:27.050Z,1.50
2022-10-03T11:28:28.666Z,1.03
2022-10-03T11:31:28.123Z,1.10
2022-10-03T11:34:39.334Z,0.90
2022-10-03T11:37:16.171Z,0.93
2022-10-03T11:39:50.577Z,1.40
2022-10-03T11:42:34.770Z,1.20
2022-10-03T11:45:04.926Z,1.30
2022-10-03T11:48:10.712Z,1.40
2022-10-03T11:50:49.417Z,1.30
2022-10-03T11:53:39.449Z,0.80
2022-10-03T11:56:34.453Z,1.30
2022-10-03T11:59:31.925Z,1.00
2022-10-03T12:02:14.491Z,1.33
2022-10-03T12:04:56.262Z,1.00
2022-10-03T12:08:00.095Z,1.07
2022-10-03T12:10:49.428Z,1.10
2022-10-03T12:13:25.344Z,1.47
2022-10-03T12:15:59.000Z,1.80
2022-10-03T12:18:34.692Z,1.30
2022-10-03T12:21:12.812Z,1.07
2022-10-03T12:24:19.081Z,1.00
2022-10-03T12:26:57.475Z,1.10
2022-10-03T12:29:33.374Z,1.13
2022-10-03T12:32:25.077Z,1.30
2022-10-03T12:35:08.353Z,1.13
2022-10-03T12:38:03.514Z,1.30
2022-10-03T12:40:36.375Z,1.10
2022-10-03T12:43:20.419Z,1.13
2022-10-03T12:45:52.505Z,1.40
2022-10-03T12:48:46.090Z,1.40
2022-10-03T12:51:23.613Z,0.80
2022-10-03T12:54:05.276Z,1.30
2022-10-03T12:56:45.526Z,1.17
2022-10-03T12:59:29.256Z,0.93
2022-10-03T13:02:27.950Z,1.33
2022-10-03T13:05:31.614Z,1.10
2022-10-03T13:08:05.384Z,1.27
2022-10-03T13:10:42.745Z,1.10
2022-10-03T13:13:25.495Z,0.90
2022-10-03T13:16:08.875Z,1.00
2022-10-03T13:18:52.775Z,1.20
2022-10-03T13:21:44.912Z,1.10
2022-10-03T13:24:33.573Z,1.10
2022-10-03T13:27:17.166Z,1.30
2022-10-03T13:29:53.600Z,1.20
2022-10-03T13:32:33.737Z,1.00
2022-10-03T13:35:30.967Z,1.00
2022-10-03T13:38:32.708Z,0.95
2022-10-03T13:41:14.497Z,1.10
2022-10-03T13:43:51.585Z,1.10
2022-10-03T13:46:31.343Z,0.70
2022-10-03T13:49:03.886Z,1.20
2022-10-03T13:51:45.643Z,1.20
2022-10-03T13:54:21.161Z,1.10
2022-10-03T13:56:55.739Z,1.17
2022-10-03T13:59:42.045Z,1.03
2022-10-03T14:02:37.529Z,0.90
2022-10-03T14:05:29.571Z,2.17
2022-10-03T14:08:09.681Z,1.03
2022-10-03T14:11:17.542Z,0.80
2022-10-03T14:14:01.991Z,1.10
2022-10-03T14:16:32.990Z,1.20
2022-10-03T14:19:11.434Z,1.10
2022-10-03T14:21:54.535Z,0.80
2022-10-03T14:24:43.208Z,0.90
2022-10-03T14:27:32.517Z,1.13
2022-10-03T14:30:08.442Z,0.77
2022-10-03T14:32:48.669Z,0.90
2022-10-03T14:35:33.448Z,1.00
2022-10-03T14:38:48.455Z,1.10
2022-10-03T14:41:23.655Z,1.20
2022-10-03T14:43:55.426Z,1.20
2022-10-03T14:46:26.344Z,1.10
2022-10-03T14:48:59.163Z,2.13
2022-10-03T14:51:35.192Z,1.10
2022-10-03T14:54:07.886Z,1.13
2022-10-03T14:56:44.499Z,0.80
2022-10-03T14:59:14.561Z,1.07
2022-10-03T15:01:50.782Z,1.03
2022-10-03T15:04:28.493Z,1.10
2022-10-03T15:07:01.110Z,0.90
2022-10-03T15:09:34.140Z,0.80
2022-10-03T15:12:12.824Z,1.00
2022-10-03T15:14:44.155Z,1.10
2022-10-03T15:17:20.790Z,1.10
2022-10-03T15:19:55.075Z,1.30
2022-10-03T15:22:36.667Z,1.30
2022-10-03T15:25:12.012Z,1.20
2022-10-03T15:27:43.242Z,1.20
2022-10-03T15:30:24.222Z,1.00
2022-10-03T15:32:59.248Z,1.27
2022-10-03T15:35:29.765Z,1.13
2022-10-03T15:38:09.295Z,1.00
2022-10-03T15:40:40.471Z,1.17
2022-10-03T15:43:22.828Z,1.10
2022-10-03T15:45:53.047Z,1.40
2022-10-03T15:48:23.030Z,1.13
2022-10-03T15:50:56.106Z,1.20
2022-10-03T15:53:36.905Z,1.20
2022-10-03T15:56:15.149Z,1.10
2022-10-03T15:58:48.144Z,1.30
2022-10-03T16:01:23.419Z,1.10
2022-10-03T16:03:54.516Z,0.80
2022-10-03T16:06:26.918Z,1.00
2022-10-03T16:09:02.273Z,1.00
2022-10-03T16:11:39.292Z,1.10
2022-10-03T16:14:17.544Z,1.00
2022-10-03T16:16:51.591Z,0.83
2022-10-03T16:19:29.514Z,1.13
2022-10-03T16:22:09.017Z,1.03
2022-10-03T16:24:51.573Z,0.80
2022-10-03T16:27:24.662Z,1.20
2022-10-03T16:30:15.431Z,1.20
2022-10-03T16:32:51.110Z,0.90
2022-10-03T16:35:38.111Z,1.30
2022-10-03T16:38:18.628Z,1.10
2022-10-03T16:40:56.593Z,1.50
2022-10-03T16:43:26.499Z,1.37
2022-10-03T16:45:56.984Z,1.20
2022-10-03T16:48:47.501Z,1.60
2022-10-03T16:51:24.362Z,1.40
2022-10-03T16:53:55.770Z,1.30
2022-10-03T16:56:28.121Z,2.17
2022-10-03T16:59:03.596Z,1.53
2022-10-03T17:01:36.347Z,1.40
2022-10-03T17:04:17.388Z,1.57
2022-10-03T17:06:49.573Z,1.67
2022-10-03T17:09:26.375Z,1.40
2022-10-03T17:12:01.743Z,1.30
2022-10-03T17:14:36.996Z,1.50
2022-10-03T17:17:09.636Z,1.33
2022-10-03T17:19:42.597Z,1.67
2022-10-03T17:22:18.178Z,1.70
2022-10-03T17:24:50.582Z,1.93
2022-10-03T17:27:29.526Z,1.70
2022-10-03T17:30:03.620Z,1.80
2022-10-03T17:32:38.219Z,1.90
2022-10-03T17:35:15.508Z,2.67
2022-10-03T17:38:37.075Z,2.47
2022-10-03T17:41:17.318Z,2.63
2022-10-03T17:43:58.149Z,3.20
2022-10-03T17:46:34.753Z,3.20
2022-10-03T17:49:17.473Z,3.03
2022-10-03T17:51:49.460Z,3.63
2022-10-03T17:54:21.740Z,3.57
2022-10-03T17:56:57.257Z,3.30
2022-10-03T17:59:29.246Z,3.63
2022-10-03T18:02:06.793Z,3.17
2022-10-03T18:04:41.452Z,3.50
2022-10-03T18:07:13.366Z,2.90
2022-10-03T18:09:47.735Z,3.00
2022-10-03T18:12:23.336Z,3.30
2022-10-03T18:15:28.282Z,3.10
2022-10-03T18:18:12.223Z,2.97
2022-10-03T18:20:47.978Z,2.83
2022-10-03T18:23:49.805Z,2.47
2022-10-03T18:26:21.608Z,2.40
2022-10-03T18:28:56.078Z,2.17
2022-10-03T18:31:27.640Z,2.20
2022-10-03T18:34:00.928Z,2.20
2022-10-03T18:36:33.491Z,2.40
2022-10-03T18:39:07.775Z,2.40
2022-10-03T18:41:35.963Z,2.40
2022-10-03T18:44:04.470Z,3.13
2022-10-03T18:46:39.689Z,2.67
2022-10-03T18:49:33.524Z,2.80
2022-10-03T18:52:10.772Z,2.80
2022-10-03T18:54:52.848Z,3.13
2022-10-03T18:57:26.646Z,3.30
2022-10-03T19:00:02.535Z,3.10
2022-10-03T19:02:36.707Z,2.60
2022-10-03T19:05:14.525Z,2.90
2022-10-03T19:07:52.402Z,3.07
2022-10-03T19:10:32.545Z,3.30
2022-10-03T19:13:07.182Z,2.73
2022-10-03T19:15:50.601Z,3.10
2022-10-03T19:18:28.097Z,2.90
2022-10-03T19:21:05.896Z,3.03
2022-10-03T19:23:39.623Z,3.47
2022-10-03T19:26:12.789Z,3.43
2022-10-03T19:28:47.864Z,3.23
2022-10-03T19:31:22.762Z,2.90
2022-10-03T19:33:53.938Z,3.70
2022-10-03T19:36:28.170Z,3.47
2022-10-03T19:38:58.153Z,3.50
2022-10-03T19:41:35.246Z,3.67
2022-10-03T19:44:05.576Z,3.80
2022-10-03T19:46:57.758Z,3.40
2022-10-03T19:49:41.156Z,3.70
2022-10-03T19:52:18.721Z,4.13
2022-10-03T19:54:53.692Z,4.13
2022-10-03T19:57:28.666Z,3.90
2022-10-03T20:00:01.560Z,3.97
2022-10-03T20:02:40.702Z,4.27
2022-10-03T20:05:09.240Z,3.70
2022-10-03T20:07:51.844Z,4.10
2022-10-03T20:10:48.747Z,4.07
2022-10-03T20:13:20.276Z,4.27
2022-10-03T20:15:51.954Z,4.50
2022-10-03T20:18:24.764Z,4.93
2022-10-03T20:20:57.549Z,4.90
2022-10-03T20:23:29.831Z,5.20
2022-10-03T20:26:03.684Z,4.60
2022-10-03T20:28:48.699Z,4.50
2022-10-03T20:31:22.984Z,5.07
2022-10-03T20:33:55.675Z,4.53
2022-10-03T20:36:26.583Z,4.80
2022-10-03T20:39:06.686Z,5.13
2022-10-03T20:41:47.855Z,5.10
2022-10-03T20:44:29.669Z,5.90
2022-10-03T20:47:05.699Z,5.47
2022-10-03T20:49:36.631Z,5.57
2022-10-03T20:52:08.673Z,5.70
2022-10-03T20:54:50.625Z,6.00
2022-10-03T20:57:25.790Z,5.23
2022-10-03T20:59:58.607Z,5.47
2022-10-03T21:02:38.042Z,5.43
2022-10-03T21:05:15.946Z,5.70
2022-10-03T21:07:49.322Z,5.00
2022-10-03T21:10:32.318Z,5.60
2022-10-03T21:13:02.593Z,5.40
2022-10-03T21:15:41.913Z,6.17
2022-10-03T21:18:24.279Z,6.03
2022-10-03T21:21:03.721Z,5.23
2022-10-03T21:23:36.370Z,5.57
2022-10-03T21:26:09.677Z,5.73
2022-10-03T21:28:39.617Z,5.53
2022-10-03T21:31:22.845Z,6.10
2022-10-03T21:34:01.003Z,6.70
2022-10-03T21:36:38.784Z,5.80
2022-10-03T21:39:18.600Z,5.60
2022-10-03T21:42:02.729Z,5.63
2022-10-03T21:44:54.716Z,5.37
2022-10-03T21:47:34.867Z,5.90
2022-10-03T21:50:06.900Z,5.80
2022-10-03T21:53:00.762Z,6.37
2022-10-03T21:55:52.643Z,6.20
2022-10-03T21:58:53.746Z,5.77
2022-10-03T22:01:30.423Z,6.63
2022-10-03T22:04:07.455Z,6.57
2022-10-03T22:06:48.558Z,6.10
2022-10-03T22:09:17.740Z,6.23
2022-10-03T22:11:51.750Z,5.77
2022-10-03T22:14:37.636Z,6.33
2022-10-03T22:17:19.311Z,5.33
2022-10-03T22:19:52.711Z,6.37
2022-10-03T22:22:31.772Z,5.90
2022-10-03T22:25:10.646Z,5.93
2022-10-03T22:27:44.764Z,5.87
2022-10-03T22:30:17.651Z,6.03
2022-10-03T22:32:57.163Z,5.93
2022-10-03T22:35:47.961Z,5.33
2022-10-03T22:38:20.786Z,5.70
2022-10-03T22:40:51.452Z,5.77
2022-10-03T22:43:20.646Z,5.13
2022-10-03T22:45:56.757Z,5.57
2022-10-03T22:48:29.881Z,5.27
2022-10-03T22:50:59.720Z,5.27
2022-10-03T22:53:36.360Z,5.27
2022-10-03T22:56:32.804Z,4.93
2022-10-03T22:59:02.456Z,4.67
2022-10-03T23:01:37.159Z,4.97
2022-10-03T23:04:08.235Z,5.23
2022-10-03T23:06:56.364Z,5.07
2022-10-03T23:09:29.746Z,5.17
2022-10-03T23:12:03.310Z,5.37
2022-10-03T23:14:35.906Z,4.80
2022-10-03T23:17:15.739Z,5.00
2022-10-03T23:19:56.657Z,5.00
2022-10-03T23:22:29.464Z,4.80
2022-10-03T23:25:02.188Z,4.73
2022-10-03T23:27:54.789Z,5.47
2022-10-03T23:30:48.786Z,5.57
2022-10-03T23:33:20.403Z,5.27
2022-10-03T23:35:51.787Z,5.30
2022-10-03T23:39:00.717Z,5.63
2022-10-03T23:41:57.542Z,5.17
2022-10-03T23:44:35.712Z,6.00
2022-10-03T23:47:07.775Z,5.77
2022-10-03T23:49:43.769Z,5.70
2022-10-03T23:52:23.342Z,5.37
2022-10-03T23:54:54.418Z,5.20
2022-10-03T23:57:32.432Z,5.27
